createdAt,value
2018-04-22T00:02:23.031Z,97.50
2018-04-22T00:04:51.305Z,97.40
2018-04-22T00:07:19.573Z,97.50
2018-04-22T00:09:47.819Z,97.50
2018-04-22T00:12:15.284Z,97.40
2018-04-22T00:14:42.775Z,97.40
2018-04-22T00:17:10.260Z,97.60
2018-04-22T00:19:37.745Z,97.10
2018-04-22T00:22:05.239Z,97.00
2018-04-22T00:24:33.489Z,97.00
2018-04-22T00:27:01.005Z,97.00
2018-04-22T00:29:28.474Z,97.00
2018-04-22T00:31:55.967Z,97.00
2018-04-22T00:34:23.432Z,97.00
2018-04-22T00:36:50.912Z,96.90
2018-04-22T00:39:18.400Z,96.80
2018-04-22T00:41:46.094Z,96.60
2018-04-22T00:44:14.132Z,96.60
2018-04-22T00:46:41.606Z,96.60
2018-04-22T00:49:09.097Z,96.70
2018-04-22T00:51:36.602Z,96.80
2018-04-22T00:54:15.817Z,97.30
2018-04-22T00:56:44.068Z,97.50
2018-04-22T00:59:11.526Z,97.50
2018-04-22T01:01:39.006Z,97.60
2018-04-22T01:04:06.493Z,98.00
2018-04-22T01:06:33.987Z,98.30
2018-04-22T01:09:01.487Z,98.50
2018-04-22T01:11:28.961Z,98.80
2018-04-22T01:13:56.429Z,98.70
2018-04-22T01:16:23.946Z,98.70
2018-04-22T01:18:51.434Z,99.20
2018-04-22T01:21:18.922Z,98.90
2018-04-22T01:23:46.414Z,99.00
2018-04-22T01:26:14.666Z,98.80
2018-04-22T01:28:42.153Z,98.80
2018-04-22T01:31:10.399Z,99.00
2018-04-22T01:33:37.874Z,98.90
2018-04-22T01:36:06.133Z,99.00
2018-04-22T01:38:33.605Z,98.90
2018-04-22T01:41:01.119Z,99.10
2018-04-22T01:43:28.602Z,99.20
2018-04-22T01:45:56.082Z,99.20
2018-04-22T01:48:24.325Z,99.50
2018-04-22T01:50:51.799Z,99.50
2018-04-22T01:53:19.292Z,99.50
2018-04-22T01:55:47.527Z,99.60
2018-04-22T01:58:15.021Z,99.60
2018-04-22T02:00:43.294Z,99.50
2018-04-22T02:03:11.533Z,99.70
2018-04-22T02:05:39.032Z,99.40
2018-04-22T02:08:07.279Z,99.50
2018-04-22T02:10:34.759Z,99.40
2018-04-22T02:13:03.010Z,99.40
2018-04-22T02:15:30.489Z,99.50
2018-04-22T02:17:57.993Z,99.70
2018-04-22T02:20:25.487Z,99.90
2018-04-22T02:22:52.989Z,99.90
2018-04-22T02:25:20.458Z,99.90
2018-04-22T02:27:47.919Z,99.90
2018-04-22T02:30:15.431Z,99.90
2018-04-22T02:32:42.885Z,99.90
2018-04-22T02:35:10.397Z,99.90
2018-04-22T02:37:37.898Z,99.90
2018-04-22T02:40:05.363Z,99.90
2018-04-22T02:42:33.636Z,99.90
2018-04-22T02:45:01.107Z,99.90
2018-04-22T02:47:29.362Z,99.90
2018-04-22T02:49:56.839Z,99.90
2018-04-22T02:52:24.326Z,99.90
2018-04-22T02:54:51.814Z,99.90
2018-04-22T02:57:19.305Z,99.90
2018-04-22T02:59:47.565Z,99.90
2018-04-22T03:02:15.819Z,99.90
2018-04-22T03:04:43.290Z,99.90
2018-04-22T03:07:10.780Z,99.90
2018-04-22T03:09:38.250Z,99.90
2018-04-22T03:12:05.750Z,99.90
2018-04-22T03:14:33.208Z,99.90
2018-04-22T03:17:00.702Z,99.90
2018-04-22T03:19:28.950Z,99.90
2018-04-22T03:21:56.408Z,99.90
2018-04-22T03:24:23.904Z,99.90
2018-04-22T03:26:51.382Z,99.90
2018-04-22T03:29:18.876Z,99.90
2018-04-22T03:31:46.360Z,99.90
2018-04-22T03:34:14.604Z,99.90
2018-04-22T03:36:42.080Z,99.90
2018-04-22T03:39:09.531Z,99.90
2018-04-22T03:41:37.010Z,99.90
2018-04-22T03:44:04.500Z,99.90
2018-04-22T03:46:32.006Z,99.90
2018-04-22T03:48:59.474Z,99.90
2018-04-22T03:51:28.513Z,99.90
2018-04-22T03:53:55.990Z,99.90
2018-04-22T03:56:23.478Z,99.90
2018-04-22T03:58:51.002Z,99.90
2018-04-22T04:01:18.484Z,99.90
2018-04-22T04:03:45.961Z,99.90
2018-04-22T04:06:13.439Z,99.90
2018-04-22T04:08:40.913Z,99.90
2018-04-22T04:11:08.419Z,99.90
2018-04-22T04:13:35.913Z,99.90
2018-04-22T04:16:03.412Z,99.90
2018-04-22T04:18:52.381Z,99.90
2018-04-22T04:21:31.568Z,99.90
2018-04-22T04:27:25.423Z,99.90
2018-04-22T04:29:52.899Z,99.90
2018-04-22T04:32:20.386Z,99.90
2018-04-22T04:34:47.877Z,99.90
2018-04-22T04:37:15.361Z,99.90
2018-04-22T04:39:42.863Z,99.90
2018-04-22T04:42:10.325Z,99.90
2018-04-22T04:44:37.822Z,99.90
2018-04-22T04:47:05.296Z,99.90
2018-04-22T04:49:32.780Z,99.90
2018-04-22T04:52:00.274Z,99.90
2018-04-22T04:54:27.767Z,99.90
2018-04-22T04:56:56.038Z,99.90
2018-04-22T04:59:23.518Z,99.90
2018-04-22T05:01:51.767Z,99.90
2018-04-22T05:04:19.244Z,99.90
2018-04-22T05:06:47.486Z,99.90
2018-04-22T05:09:14.973Z,99.90
2018-04-22T05:11:43.222Z,99.90
2018-04-22T05:14:10.712Z,99.90
2018-04-22T05:16:38.986Z,99.90
2018-04-22T05:19:07.228Z,99.90
2018-04-22T05:21:34.719Z,99.90
2018-04-22T05:24:02.948Z,99.90
2018-04-22T05:26:30.448Z,99.90
2018-04-22T05:28:58.694Z,99.90
2018-04-22T05:31:26.210Z,99.90
2018-04-22T05:33:53.694Z,99.90
2018-04-22T05:36:21.171Z,99.90
2018-04-22T05:38:48.668Z,99.90
2018-04-22T05:41:16.888Z,99.90
2018-04-22T05:43:44.390Z,99.90
2018-04-22T05:46:12.620Z,99.20
2018-04-22T05:48:40.118Z,99.20
2018-04-22T05:51:07.590Z,98.90
2018-04-22T05:53:35.075Z,98.70
2018-04-22T05:56:02.549Z,98.50
2018-04-22T05:58:30.018Z,98.30
2018-04-22T06:00:57.580Z,98.10
2018-04-22T06:03:25.054Z,97.80
2018-04-22T06:05:52.542Z,97.60
2018-04-22T06:08:20.035Z,97.40
2018-04-22T06:10:47.506Z,97.40
2018-04-22T06:13:14.996Z,97.10
2018-04-22T06:15:43.244Z,96.80
2018-04-22T06:18:10.732Z,96.80
2018-04-22T06:20:38.993Z,96.40
2018-04-22T06:23:06.484Z,96.40
2018-04-22T06:25:33.955Z,96.20
2018-04-22T06:28:01.419Z,95.90
2018-04-22T06:30:28.925Z,95.30
2018-04-22T06:32:56.416Z,93.90
2018-04-22T06:35:23.922Z,93.70
2018-04-22T06:37:51.403Z,93.10
2018-04-22T06:40:18.952Z,91.90
2018-04-22T06:42:46.396Z,91.30
2018-04-22T06:45:13.867Z,91.90
2018-04-22T06:47:41.362Z,92.10
2018-04-22T06:50:08.850Z,92.00
2018-04-22T06:52:36.366Z,91.20
2018-04-22T06:55:04.616Z,88.60
2018-04-22T06:57:32.102Z,88.50
2018-04-22T07:00:00.382Z,82.40
2018-04-22T07:02:28.647Z,82.60
2018-04-22T07:04:56.889Z,77.90
2018-04-22T07:07:24.403Z,77.90
2018-04-22T07:09:51.903Z,77.40
2018-04-22T07:12:19.517Z,75.20
2018-04-22T07:14:46.997Z,77.10
2018-04-22T07:17:14.523Z,76.10
2018-04-22T07:19:42.038Z,74.60
2018-04-22T07:22:09.989Z,74.00
2018-04-22T07:24:37.492Z,71.20
2018-04-22T07:27:04.970Z,72.30
2018-04-22T07:29:32.454Z,70.30
2018-04-22T07:31:59.931Z,73.60
2018-04-22T07:34:27.417Z,71.70
2018-04-22T07:36:54.911Z,74.20
2018-04-22T07:39:22.415Z,72.70
2018-04-22T07:41:49.908Z,74.40
2018-04-22T07:44:18.156Z,71.60
2018-04-22T07:46:45.996Z,71.60
2018-04-22T07:49:13.492Z,70.40
2018-04-22T07:51:40.966Z,69.80
2018-04-22T07:54:08.460Z,70.10
2018-04-22T07:56:35.953Z,70.50
2018-04-22T07:59:03.948Z,68.00
2018-04-22T08:01:31.577Z,66.80
2018-04-22T08:03:59.099Z,71.70
2018-04-22T08:06:26.598Z,68.70
2018-04-22T08:08:55.336Z,69.10
2018-04-22T08:11:22.846Z,68.90
2018-04-22T08:13:50.343Z,70.10
2018-04-22T08:16:17.865Z,67.80
2018-04-22T08:18:45.331Z,69.10
2018-04-22T08:21:13.612Z,70.90
2018-04-22T08:23:41.881Z,72.40
2018-04-22T08:26:09.362Z,72.40
2018-04-22T08:28:36.862Z,72.30
2018-04-22T08:31:04.368Z,73.60
2018-04-22T08:33:31.919Z,72.20
2018-04-22T08:35:59.710Z,72.70
2018-04-22T08:38:27.399Z,72.80
2018-04-22T08:40:56.111Z,73.60
2018-04-22T08:43:23.632Z,75.80
2018-04-22T08:45:51.149Z,76.40
2018-04-22T08:48:18.630Z,80.40
2018-04-22T08:50:46.165Z,78.20
2018-04-22T08:53:14.430Z,77.80
2018-04-22T08:55:41.937Z,77.70
2018-04-22T08:58:09.449Z,78.90
2018-04-22T09:00:36.961Z,79.60
2018-04-22T09:03:04.448Z,78.80
2018-04-22T09:05:31.973Z,77.30
2018-04-22T09:07:59.455Z,79.40
2018-04-22T09:10:26.960Z,79.20
2018-04-22T09:12:55.250Z,78.00
2018-04-22T09:15:22.776Z,78.00
2018-04-22T09:17:50.344Z,77.70
2018-04-22T09:20:18.639Z,73.00
2018-04-22T09:22:46.184Z,72.80
2018-04-22T09:25:14.436Z,71.60
2018-04-22T09:27:41.920Z,71.50
2018-04-22T09:30:10.216Z,69.60
2018-04-22T09:32:37.694Z,69.50
2018-04-22T09:35:05.178Z,71.20
2018-04-22T09:37:32.712Z,68.70
2018-04-22T09:40:00.244Z,68.90
2018-04-22T09:42:27.742Z,70.20
2018-04-22T09:44:55.268Z,69.10
2018-04-22T09:47:22.760Z,69.80
2018-04-22T09:49:50.253Z,70.10
2018-04-22T09:52:18.524Z,68.10
2018-04-22T09:54:46.021Z,68.20
2018-04-22T09:57:13.553Z,67.40
2018-04-22T09:59:41.043Z,68.30
2018-04-22T10:02:16.187Z,67.60
2018-04-22T10:04:44.570Z,65.70
2018-04-22T10:07:12.085Z,66.10
2018-04-22T10:09:40.331Z,66.40
2018-04-22T10:12:07.838Z,66.30
2018-04-22T10:14:35.316Z,65.10
2018-04-22T10:17:02.793Z,65.70
2018-04-22T10:19:30.309Z,65.10
2018-04-22T10:21:58.545Z,66.40
2018-04-22T10:24:26.019Z,66.40
2018-04-22T10:26:53.500Z,67.90
2018-04-22T10:29:21.021Z,67.10
2018-04-22T10:31:49.280Z,65.00
2018-04-22T10:34:16.780Z,65.70
2018-04-22T10:36:45.064Z,66.20
2018-04-22T10:39:12.554Z,66.00
2018-04-22T10:41:40.057Z,66.70
2018-04-22T10:44:08.305Z,62.80
2018-04-22T10:46:35.798Z,62.60
2018-04-22T10:49:05.950Z,62.60
2018-04-22T10:51:33.460Z,62.50
2018-04-22T10:54:00.989Z,63.70
2018-04-22T10:56:28.531Z,63.70
2018-04-22T10:58:56.057Z,64.20
2018-04-22T11:01:24.282Z,61.40
2018-04-22T11:03:51.834Z,61.50
2018-04-22T11:06:19.330Z,62.20
2018-04-22T11:08:46.875Z,61.40
2018-04-22T11:11:14.375Z,62.40
2018-04-22T11:13:41.858Z,62.10
2018-04-22T11:16:09.333Z,62.20
2018-04-22T11:18:36.798Z,62.70
2018-04-22T11:21:04.313Z,63.20
2018-04-22T11:23:31.860Z,63.40
2018-04-22T11:26:00.116Z,64.20
2018-04-22T11:28:27.580Z,64.20
2018-04-22T11:30:55.080Z,63.20
2018-04-22T11:33:22.538Z,62.40
2018-04-22T11:35:50.800Z,61.90
2018-04-22T11:38:18.296Z,61.90
2018-04-22T11:40:45.774Z,63.00
2018-04-22T11:43:13.300Z,59.70
2018-04-22T11:45:40.770Z,59.80
2018-04-22T11:48:08.306Z,59.60
2018-04-22T11:50:35.773Z,59.30
2018-04-22T11:53:03.257Z,59.80
2018-04-22T11:55:30.761Z,59.60
2018-04-22T11:57:58.234Z,60.00
2018-04-22T12:00:25.741Z,59.40
2018-04-22T12:02:53.214Z,58.60
2018-04-22T12:05:21.512Z,58.10
2018-04-22T12:07:49.001Z,58.10
2018-04-22T12:10:16.519Z,59.30
2018-04-22T12:12:44.085Z,59.30
2018-04-22T12:15:11.626Z,59.20
2018-04-22T12:17:39.132Z,58.40
2018-04-22T12:20:06.642Z,58.40
2018-04-22T12:22:34.951Z,58.50
2018-04-22T12:25:02.452Z,58.50
2018-04-22T12:27:30.076Z,57.80
2018-04-22T12:29:57.614Z,57.10
2018-04-22T12:32:25.222Z,55.50
2018-04-22T12:34:52.703Z,55.80
2018-04-22T12:37:20.185Z,55.80
2018-04-22T12:39:48.448Z,55.20
2018-04-22T12:42:16.732Z,56.20
2018-04-22T12:44:44.981Z,56.10
2018-04-22T12:47:12.451Z,56.00
2018-04-22T12:49:40.707Z,53.30
2018-04-22T12:52:08.167Z,53.20
2018-04-22T12:54:35.643Z,53.40
2018-04-22T12:57:03.972Z,51.70
2018-04-22T12:59:31.484Z,51.60
2018-04-22T13:01:58.980Z,51.70
2018-04-22T13:04:26.451Z,50.80
2018-04-22T13:06:53.951Z,49.40
2018-04-22T13:09:22.257Z,49.00
2018-04-22T13:11:49.744Z,48.90
2018-04-22T13:14:17.243Z,49.20
2018-04-22T13:16:45.518Z,46.00
2018-04-22T13:19:13.921Z,45.50
2018-04-22T13:21:41.395Z,45.40
2018-04-22T13:24:08.897Z,43.30
2018-04-22T13:26:36.366Z,43.00
2018-04-22T13:29:04.627Z,41.50
2018-04-22T13:31:32.110Z,41.50
2018-04-22T13:34:00.368Z,43.90
2018-04-22T13:36:27.865Z,43.90
2018-04-22T13:38:55.355Z,45.10
2018-04-22T13:41:22.853Z,44.30
2018-04-22T13:43:50.375Z,44.30
2018-04-22T13:46:17.865Z,44.90
2018-04-22T13:48:45.402Z,45.00
2018-04-22T13:51:12.874Z,44.30
2018-04-22T13:53:40.714Z,45.00
2018-04-22T13:56:08.194Z,46.00
2018-04-22T13:58:35.675Z,47.00
2018-04-22T14:01:03.145Z,45.80
2018-04-22T14:03:30.648Z,45.60
2018-04-22T14:05:58.112Z,44.60
2018-04-22T14:08:25.609Z,45.60
2018-04-22T14:10:53.867Z,47.00
2018-04-22T14:13:21.355Z,47.00
2018-04-22T14:15:48.857Z,46.40
2018-04-22T14:18:16.843Z,46.30
2018-04-22T14:20:44.336Z,45.10
2018-04-22T14:23:11.849Z,45.10
2018-04-22T14:25:39.340Z,45.80
2018-04-22T14:28:07.609Z,42.90
2018-04-22T14:30:35.891Z,43.60
2018-04-22T14:33:04.152Z,43.30
2018-04-22T14:35:31.616Z,43.30
2018-04-22T14:37:59.958Z,45.10
2018-04-22T14:40:27.416Z,45.00
2018-04-22T14:42:54.912Z,45.00
2018-04-22T14:45:34.140Z,44.40
2018-04-22T14:48:02.399Z,45.70
2018-04-22T14:50:29.905Z,45.70
2018-04-22T14:52:57.401Z,45.40
2018-04-22T14:55:24.891Z,45.50
2018-04-22T14:57:53.209Z,46.20
2018-04-22T15:00:20.656Z,46.10
2018-04-22T15:02:48.127Z,46.70
2018-04-22T15:05:15.637Z,47.10
2018-04-22T15:07:43.116Z,48.00
2018-04-22T15:10:10.599Z,47.40
2018-04-22T15:12:38.097Z,48.30
2018-04-22T15:15:05.590Z,48.30
2018-04-22T15:17:33.124Z,47.80
2018-04-22T15:20:01.396Z,49.60
2018-04-22T15:22:28.869Z,49.60
2018-04-22T15:24:57.157Z,51.60
2018-04-22T15:27:24.595Z,51.60
2018-04-22T15:29:52.847Z,51.50
2018-04-22T15:32:20.337Z,51.40
2018-04-22T15:34:48.621Z,52.10
2018-04-22T15:37:16.854Z,52.10
2018-04-22T15:39:44.372Z,52.00
2018-04-22T15:42:11.843Z,52.20
2018-04-22T15:44:39.332Z,52.20
2018-04-22T15:47:06.813Z,51.20
2018-04-22T15:49:34.322Z,50.90
2018-04-22T15:52:01.835Z,49.90
2018-04-22T15:54:30.093Z,50.20
2018-04-22T15:56:57.567Z,50.20
2018-04-22T15:59:25.835Z,52.10
2018-04-22T16:01:54.093Z,52.90
2018-04-22T16:04:21.590Z,52.80
2018-04-22T16:06:49.090Z,53.70
2018-04-22T16:09:16.590Z,52.40
2018-04-22T16:11:44.242Z,52.90
2018-04-22T16:14:11.749Z,51.40
2018-04-22T16:16:39.232Z,51.70
2018-04-22T16:19:06.745Z,52.00
2018-04-22T16:21:34.225Z,52.00
2018-04-22T16:24:01.741Z,52.50
2018-04-22T16:26:29.222Z,53.50
2018-04-22T16:28:56.712Z,53.70
2018-04-22T16:31:24.224Z,54.50
2018-04-22T16:33:52.470Z,55.70
2018-04-22T16:36:19.995Z,55.70
2018-04-22T16:38:47.460Z,56.70
2018-04-22T16:41:15.721Z,57.80
2018-04-22T16:43:43.195Z,57.70
2018-04-22T16:46:10.667Z,57.70
2018-04-22T16:48:38.163Z,58.30
2018-04-22T16:51:06.403Z,58.90
2018-04-22T16:53:34.654Z,59.40
2018-04-22T16:56:02.125Z,59.40
2018-04-22T16:58:29.605Z,59.60
2018-04-22T17:00:57.102Z,60.20
2018-04-22T17:03:24.589Z,59.40
2018-04-22T17:05:52.155Z,59.40
2018-04-22T17:08:19.586Z,59.30
2018-04-22T17:10:47.090Z,58.60
2018-04-22T17:13:14.582Z,57.40
2018-04-22T17:15:42.053Z,57.40
2018-04-22T17:18:09.549Z,56.70
2018-04-22T17:20:37.015Z,56.40
2018-04-22T17:23:04.477Z,56.60
2018-04-22T17:25:31.983Z,56.10
2018-04-22T17:27:59.459Z,56.40
2018-04-22T17:30:26.937Z,55.70
2018-04-22T17:32:54.417Z,56.10
2018-04-22T17:35:21.907Z,56.30
2018-04-22T17:37:49.433Z,56.50
2018-04-22T17:40:16.904Z,56.50
2018-04-22T17:42:44.407Z,56.60
2018-04-22T17:45:12.652Z,56.00
2018-04-22T17:47:40.134Z,55.90
2018-04-22T17:50:07.645Z,56.10
2018-04-22T17:52:35.132Z,56.20
2018-04-22T17:55:02.639Z,56.40
2018-04-22T17:57:30.116Z,56.40
2018-04-22T17:59:57.597Z,57.00
2018-04-22T18:02:25.091Z,57.30
2018-04-22T18:04:52.587Z,57.60
2018-04-22T18:07:20.132Z,57.90
2018-04-22T18:09:47.667Z,58.30
2018-04-22T18:12:15.451Z,58.40
2018-04-22T18:14:42.976Z,58.60
2018-04-22T18:17:10.492Z,58.80
2018-04-22T18:19:38.724Z,59.00
2018-04-22T18:22:06.585Z,59.00
2018-04-22T18:24:34.056Z,59.10
2018-04-22T18:27:01.570Z,59.20
2018-04-22T18:29:29.092Z,59.30
2018-04-22T18:31:56.571Z,59.60
2018-04-22T18:34:24.130Z,59.60
2018-04-22T18:36:51.639Z,60.00
2018-04-22T18:39:19.121Z,60.30
2018-04-22T18:41:46.588Z,60.50
2018-04-22T18:44:14.917Z,60.80
2018-04-22T18:46:42.404Z,61.20
2018-04-22T18:49:10.714Z,61.80
2018-04-22T18:51:39.010Z,62.80
2018-04-22T18:54:06.500Z,61.90
2018-04-22T18:56:34.727Z,62.80
2018-04-22T18:59:02.981Z,63.10
2018-04-22T19:01:30.462Z,62.90
2018-04-22T19:03:58.730Z,63.60
2018-04-22T19:06:26.227Z,63.50
2018-04-22T19:08:53.694Z,63.70
2018-04-22T19:11:21.240Z,64.40
2018-04-22T19:13:48.711Z,64.50
2018-04-22T19:16:16.241Z,64.80
2018-04-22T19:18:44.475Z,65.70
2018-04-22T19:21:11.949Z,65.70
2018-04-22T19:23:39.446Z,65.70
2018-04-22T19:26:07.739Z,65.90
2018-04-22T19:28:35.284Z,66.20
2018-04-22T19:31:02.771Z,66.60
2018-04-22T19:33:30.241Z,66.90
2018-04-22T19:35:57.732Z,67.70
2018-04-22T19:38:25.442Z,67.70
2018-04-22T19:40:53.748Z,68.30
2018-04-22T19:43:21.625Z,68.40
2018-04-22T19:45:49.083Z,68.80
2018-04-22T19:48:17.341Z,69.40
2018-04-22T19:50:46.009Z,69.30
2018-04-22T19:53:13.538Z,69.70
2018-04-22T19:55:41.070Z,69.90
2018-04-22T19:58:08.566Z,70.30
2018-04-22T20:00:36.274Z,70.50
2018-04-22T20:03:04.714Z,71.20
2018-04-22T20:05:32.213Z,71.10
2018-04-22T20:08:00.492Z,72.10
2018-04-22T20:10:27.970Z,72.10
2018-04-22T20:12:56.260Z,72.80
2018-04-22T20:15:23.760Z,72.70
2018-04-22T20:17:51.254Z,73.10
2018-04-22T20:20:19.497Z,73.80
2018-04-22T20:22:46.974Z,73.80
2018-04-22T20:25:15.272Z,74.80
2018-04-22T20:27:43.359Z,74.80
2018-04-22T20:30:10.865Z,75.00
2018-04-22T20:32:38.395Z,75.40
2018-04-22T20:35:05.926Z,75.70
2018-04-22T20:37:34.828Z,76.20
2018-04-22T20:40:03.486Z,76.40
2018-04-22T20:42:31.811Z,77.10
2018-04-22T20:44:59.359Z,77.00
2018-04-22T20:47:26.885Z,77.20
2018-04-22T20:49:54.400Z,77.70
2018-04-22T20:52:21.864Z,78.00
2018-04-22T20:54:49.351Z,78.70
2018-04-22T20:57:17.658Z,79.50
2018-04-22T20:59:45.138Z,79.40
2018-04-22T21:02:12.602Z,79.80
2018-04-22T21:04:40.089Z,80.00
2018-04-22T21:07:07.574Z,81.00
2018-04-22T21:09:35.053Z,80.70
2018-04-22T21:12:02.573Z,81.10
2018-04-22T21:14:30.805Z,81.80
2018-04-22T21:16:58.276Z,81.80
2018-04-22T21:19:25.790Z,82.00
2018-04-22T21:21:53.267Z,82.20
2018-04-22T21:24:20.745Z,83.60
2018-04-22T21:26:48.248Z,83.90
2018-04-22T21:29:16.823Z,84.80
2018-04-22T21:31:45.075Z,86.10
2018-04-22T21:34:12.566Z,86.10
2018-04-22T21:36:40.804Z,86.40
2018-04-22T21:39:08.278Z,86.40
2018-04-22T21:41:35.766Z,86.50
2018-04-22T21:44:03.252Z,87.10
2018-04-22T21:46:30.730Z,87.10
2018-04-22T21:48:58.205Z,87.10
2018-04-22T21:51:25.682Z,87.90
2018-04-22T21:53:53.194Z,88.70
2018-04-22T21:56:20.664Z,89.20
2018-04-22T21:58:48.156Z,90.20
2018-04-22T22:01:15.643Z,90.40
2018-04-22T22:03:43.139Z,90.50
2018-04-22T22:06:10.636Z,90.70
2018-04-22T22:08:38.123Z,91.00
2018-04-22T22:11:05.607Z,91.40
2018-04-22T22:13:33.068Z,91.50
2018-04-22T22:16:00.542Z,91.70
2018-04-22T22:18:28.026Z,91.80
2018-04-22T22:20:56.272Z,92.10
2018-04-22T22:23:23.777Z,92.20
2018-04-22T22:25:51.239Z,92.00
2018-04-22T22:28:19.792Z,92.10
2018-04-22T22:30:48.043Z,92.40
2018-04-22T22:33:15.521Z,92.40
2018-04-22T22:35:43.772Z,92.70
2018-04-22T22:38:11.244Z,92.70
2018-04-22T22:40:39.480Z,93.20
2018-04-22T22:43:06.967Z,92.90
2018-04-22T22:45:34.447Z,93.10
2018-04-22T22:48:02.677Z,93.40
2018-04-22T22:50:30.454Z,93.40
2018-04-22T22:52:58.057Z,93.60
2018-04-22T22:55:25.557Z,93.50
2018-04-22T22:57:53.072Z,93.70
2018-04-22T23:00:21.449Z,93.70
2018-04-22T23:02:49.819Z,93.60
2018-04-22T23:05:18.060Z,94.30
2018-04-22T23:07:45.538Z,94.20
2018-04-22T23:10:13.010Z,94.30
2018-04-22T23:12:40.500Z,94.40
2018-04-22T23:15:08.042Z,94.40
2018-04-22T23:17:35.506Z,94.70
2018-04-22T23:20:03.002Z,94.70
2018-04-22T23:22:30.480Z,94.80
2018-04-22T23:24:57.970Z,95.00
2018-04-22T23:27:25.441Z,95.20
2018-04-22T23:29:52.912Z,95.90
2018-04-22T23:32:20.373Z,95.40
2018-04-22T23:34:47.841Z,95.60
2018-04-22T23:37:15.353Z,95.90
2018-04-22T23:39:43.584Z,95.30
2018-04-22T23:42:11.061Z,95.20
2018-04-22T23:44:39.312Z,95.10
2018-04-22T23:47:06.790Z,95.40
2018-04-22T23:49:34.293Z,95.40
2018-04-22T23:52:01.765Z,95.10
2018-04-22T23:54:29.227Z,94.80
2018-04-22T23:56:56.728Z,94.90
2018-04-22T23:59:24.973Z,95.20
